sensor_id;sensor_type;location;lat;lon;timestamp;pressure;altitude;pressure_sealevel;temperature;humidity
64460;BME280;50828;53.756;21.140;2022-10-16T00:02:52;99808.23;;;14.14;71.43
64460;BME280;50828;53.756;21.140;2022-10-16T00:07:59;99811.34;;;14.12;71.25
64460;BME280;50828;53.756;21.140;2022-10-16T00:13:06;99817.30;;;14.10;71.13
64460;BME280;50828;53.756;21.140;2022-10-16T00:18:13;99815.44;;;14.08;71.19
64460;BME280;50828;53.756;21.140;2022-10-16T00:23:21;99819.21;;;14.07;71.13
64460;BME280;50828;53.756;21.140;2022-10-16T00:28:30;99823.83;;;14.07;71.12
64460;BME280;50828;53.756;21.140;2022-10-16T00:33:39;99829.09;;;14.08;71.12
64460;BME280;50828;53.756;21.140;2022-10-16T00:38:49;99825.21;;;14.08;71.15
64460;BME280;50828;53.756;21.140;2022-10-16T00:43:59;99826.63;;;14.07;71.13
64460;BME280;50828;53.756;21.140;2022-10-16T00:49:08;99838.55;;;14.07;71.15
64460;BME280;50828;53.756;21.140;2022-10-16T00:54:17;99837.31;;;14.06;71.12
64460;BME280;50828;53.756;21.140;2022-10-16T00:59:29;99842.02;;;14.05;71.19
64460;BME280;50828;53.756;21.140;2022-10-16T01:04:38;99837.88;;;14.03;71.28
64460;BME280;50828;53.756;21.140;2022-10-16T01:09:54;99827.28;;;14.00;71.19
64460;BME280;50828;53.756;21.140;2022-10-16T01:15:10;99823.31;;;13.95;71.45
64460;BME280;50828;53.756;21.140;2022-10-16T01:20:23;99830.38;;;13.92;71.22
64460;BME280;50828;53.756;21.140;2022-10-16T01:25:44;99833.41;;;13.89;71.31
64460;BME280;50828;53.756;21.140;2022-10-16T01:30:59;99835.67;;;13.86;71.54
64460;BME280;50828;53.756;21.140;2022-10-16T01:36:13;99834.00;;;13.85;71.52
64460;BME280;50828;53.756;21.140;2022-10-16T01:41:30;99845.08;;;13.83;71.53
64460;BME280;50828;53.756;21.140;2022-10-16T01:46:42;99849.63;;;13.84;71.61
64460;BME280;50828;53.756;21.140;2022-10-16T01:51:54;99854.14;;;13.95;71.91
64460;BME280;50828;53.756;21.140;2022-10-16T01:57:03;99856.80;;;13.94;71.60
64460;BME280;50828;53.756;21.140;2022-10-16T02:02:16;99855.26;;;13.93;71.56
64460;BME280;50828;53.756;21.140;2022-10-16T02:07:24;99859.77;;;13.92;71.81
64460;BME280;50828;53.756;21.140;2022-10-16T02:12:33;99866.23;;;13.90;71.55
64460;BME280;50828;53.756;21.140;2022-10-16T02:17:42;99865.02;;;13.90;71.68
64460;BME280;50828;53.756;21.140;2022-10-16T02:22:50;99860.57;;;13.87;71.72
64460;BME280;50828;53.756;21.140;2022-10-16T02:28:01;99857.73;;;13.84;71.63
64460;BME280;50828;53.756;21.140;2022-10-16T02:33:09;99855.83;;;13.81;71.85
64460;BME280;50828;53.756;21.140;2022-10-16T02:38:19;99860.13;;;13.76;71.93
64460;BME280;50828;53.756;21.140;2022-10-16T02:43:28;99862.04;;;13.74;72.20
64460;BME280;50828;53.756;21.140;2022-10-16T02:48:35;99859.29;;;13.72;71.82
64460;BME280;50828;53.756;21.140;2022-10-16T02:53:42;99858.42;;;13.69;72.06
64460;BME280;50828;53.756;21.140;2022-10-16T02:58:50;99852.50;;;13.67;72.15
64460;BME280;50828;53.756;21.140;2022-10-16T03:03:57;99850.73;;;13.65;71.89
64460;BME280;50828;53.756;21.140;2022-10-16T03:09:05;99853.09;;;13.64;72.52
64460;BME280;50828;53.756;21.140;2022-10-16T03:14:12;99856.11;;;13.66;72.41
64460;BME280;50828;53.756;21.140;2022-10-16T03:19:21;99853.59;;;13.64;72.46
64460;BME280;50828;53.756;21.140;2022-10-16T03:24:28;99849.16;;;13.64;72.49
64460;BME280;50828;53.756;21.140;2022-10-16T03:29:36;99856.80;;;13.64;72.33
64460;BME280;50828;53.756;21.140;2022-10-16T03:34:43;99864.02;;;13.64;72.52
64460;BME280;50828;53.756;21.140;2022-10-16T03:39:51;99874.31;;;13.64;72.44
64460;BME280;50828;53.756;21.140;2022-10-16T03:44:59;99871.48;;;13.64;72.62
64460;BME280;50828;53.756;21.140;2022-10-16T03:50:07;99873.23;;;13.64;72.54
64460;BME280;50828;53.756;21.140;2022-10-16T03:55:15;99876.27;;;13.63;72.65
64460;BME280;50828;53.756;21.140;2022-10-16T04:00:23;99876.54;;;13.65;73.13
64460;BME280;50828;53.756;21.140;2022-10-16T04:05:30;99872.05;;;13.66;73.00
64460;BME280;50828;53.756;21.140;2022-10-16T04:10:38;99884.40;;;13.67;73.41
64460;BME280;50828;53.756;21.140;2022-10-16T04:15:46;99883.17;;;13.67;72.99
64460;BME280;50828;53.756;21.140;2022-10-16T04:20:53;99875.71;;;13.67;72.82
64460;BME280;50828;53.756;21.140;2022-10-16T04:26:01;99873.10;;;13.66;73.00
64460;BME280;50828;53.756;21.140;2022-10-16T04:31:09;99875.55;;;13.67;72.93
64460;BME280;50828;53.756;21.140;2022-10-16T04:36:16;99876.98;;;13.67;72.95
64460;BME280;50828;53.756;21.140;2022-10-16T04:41:23;99882.16;;;13.66;72.88
64460;BME280;50828;53.756;21.140;2022-10-16T04:46:30;99883.98;;;13.61;72.60
64460;BME280;50828;53.756;21.140;2022-10-16T04:51:38;99884.30;;;13.59;72.83
64460;BME280;50828;53.756;21.140;2022-10-16T04:56:45;99894.38;;;13.56;73.13
64460;BME280;50828;53.756;21.140;2022-10-16T05:01:53;99894.81;;;13.54;72.86
64460;BME280;50828;53.756;21.140;2022-10-16T05:07:01;99894.45;;;13.48;72.75
64460;BME280;50828;53.756;21.140;2022-10-16T05:12:09;99906.88;;;13.51;72.87
64460;BME280;50828;53.756;21.140;2022-10-16T05:17:16;99914.45;;;13.48;72.79
64460;BME280;50828;53.756;21.140;2022-10-16T05:22:23;99925.46;;;13.47;72.86
64460;BME280;50828;53.756;21.140;2022-10-16T05:27:30;99923.05;;;13.46;73.10
64460;BME280;50828;53.756;21.140;2022-10-16T05:32:38;99932.28;;;13.49;73.31
64460;BME280;50828;53.756;21.140;2022-10-16T05:37:46;99933.39;;;13.48;73.39
64460;BME280;50828;53.756;21.140;2022-10-16T05:42:57;99931.45;;;13.48;73.30
64460;BME280;50828;53.756;21.140;2022-10-16T05:48:05;99933.73;;;13.48;73.47
64460;BME280;50828;53.756;21.140;2022-10-16T05:53:12;99941.88;;;13.48;73.33
64460;BME280;50828;53.756;21.140;2022-10-16T05:58:20;99948.94;;;13.48;73.00
64460;BME280;50828;53.756;21.140;2022-10-16T06:03:28;99945.98;;;13.47;73.21
64460;BME280;50828;53.756;21.140;2022-10-16T06:08:35;99947.58;;;13.47;73.31
64460;BME280;50828;53.756;21.140;2022-10-16T06:13:42;99954.29;;;13.47;73.17
64460;BME280;50828;53.756;21.140;2022-10-16T06:18:52;99967.33;;;13.49;73.30
64460;BME280;50828;53.756;21.140;2022-10-16T06:24:00;99972.61;;;13.52;73.58
64460;BME280;50828;53.756;21.140;2022-10-16T06:29:07;99975.62;;;13.55;73.35
64460;BME280;50828;53.756;21.140;2022-10-16T06:34:15;99984.65;;;13.58;73.04
64460;BME280;50828;53.756;21.140;2022-10-16T06:39:22;99975.86;;;13.61;73.32
64460;BME280;50828;53.756;21.140;2022-10-16T06:44:30;99984.39;;;13.63;73.20
64460;BME280;50828;53.756;21.140;2022-10-16T06:49:37;99994.98;;;13.70;73.39
64460;BME280;50828;53.756;21.140;2022-10-16T06:54:45;100000.58;;;13.78;73.81
64460;BME280;50828;53.756;21.140;2022-10-16T06:59:52;99998.13;;;13.87;73.17
64460;BME280;50828;53.756;21.140;2022-10-16T07:04:59;100000.29;;;13.96;73.38
64460;BME280;50828;53.756;21.140;2022-10-16T07:10:08;100002.13;;;14.04;73.53
64460;BME280;50828;53.756;21.140;2022-10-16T07:15:16;99997.38;;;14.13;73.11
64460;BME280;50828;53.756;21.140;2022-10-16T07:20:23;99990.80;;;14.20;73.09
64460;BME280;50828;53.756;21.140;2022-10-16T07:25:30;99990.84;;;14.25;72.89
64460;BME280;50828;53.756;21.140;2022-10-16T07:30:38;99991.32;;;14.33;72.79
64460;BME280;50828;53.756;21.140;2022-10-16T07:35:51;99983.36;;;14.38;72.59
64460;BME280;50828;53.756;21.140;2022-10-16T07:41:00;99973.39;;;14.42;72.58
64460;BME280;50828;53.756;21.140;2022-10-16T07:46:08;99995.80;;;14.50;72.42
64460;BME280;50828;53.756;21.140;2022-10-16T07:51:16;100007.05;;;14.54;72.24
64460;BME280;50828;53.756;21.140;2022-10-16T07:56:24;100012.23;;;14.60;72.15
64460;BME280;50828;53.756;21.140;2022-10-16T08:01:31;100005.16;;;14.66;72.12
64460;BME280;50828;53.756;21.140;2022-10-16T08:06:39;100021.80;;;14.70;72.06
64460;BME280;50828;53.756;21.140;2022-10-16T08:11:47;100015.95;;;14.76;71.82
64460;BME280;50828;53.756;21.140;2022-10-16T08:16:55;100012.89;;;14.79;71.78
64460;BME280;50828;53.756;21.140;2022-10-16T08:22:02;100019.95;;;14.83;71.62
64460;BME280;50828;53.756;21.140;2022-10-16T08:27:10;100005.05;;;14.83;71.65
64460;BME280;50828;53.756;21.140;2022-10-16T08:32:18;100022.90;;;14.93;71.75
64460;BME280;50828;53.756;21.140;2022-10-16T08:37:33;100022.73;;;14.99;71.74
64460;BME280;50828;53.756;21.140;2022-10-16T08:42:52;100026.38;;;15.09;71.58
64460;BME280;50828;53.756;21.140;2022-10-16T08:48:11;100024.48;;;15.16;71.46
64460;BME280;50828;53.756;21.140;2022-10-16T08:53:26;100022.64;;;15.27;71.47
64460;BME280;50828;53.756;21.140;2022-10-16T08:58:35;100013.35;;;15.34;71.35
64460;BME280;50828;53.756;21.140;2022-10-16T09:03:57;100014.64;;;15.41;71.08
64460;BME280;50828;53.756;21.140;2022-10-16T09:09:29;100020.58;;;15.49;70.94
64460;BME280;50828;53.756;21.140;2022-10-16T09:14:55;100026.14;;;15.56;70.76
64460;BME280;50828;53.756;21.140;2022-10-16T09:25:33;100024.90;;;15.73;70.50
64460;BME280;50828;53.756;21.140;2022-10-16T09:30:40;100027.27;;;15.81;70.20
64460;BME280;50828;53.756;21.140;2022-10-16T09:35:50;100033.67;;;15.89;70.00
64460;BME280;50828;53.756;21.140;2022-10-16T09:40:59;100039.86;;;15.98;69.98
64460;BME280;50828;53.756;21.140;2022-10-16T09:46:19;100042.46;;;16.05;69.87
64460;BME280;50828;53.756;21.140;2022-10-16T09:51:29;100044.27;;;16.13;69.53
64460;BME280;50828;53.756;21.140;2022-10-16T09:56:37;100040.04;;;16.21;69.36
64460;BME280;50828;53.756;21.140;2022-10-16T10:01:47;100039.77;;;16.27;69.37
64460;BME280;50828;53.756;21.140;2022-10-16T10:06:57;100030.65;;;16.31;69.24
64460;BME280;50828;53.756;21.140;2022-10-16T10:12:06;100035.02;;;16.38;69.29
64460;BME280;50828;53.756;21.140;2022-10-16T10:17:30;100034.01;;;16.45;69.34
64460;BME280;50828;53.756;21.140;2022-10-16T10:22:44;100033.35;;;16.50;69.29
64460;BME280;50828;53.756;21.140;2022-10-16T10:28:02;100030.93;;;16.62;69.11
64460;BME280;50828;53.756;21.140;2022-10-16T10:33:20;100037.45;;;16.74;69.14
64460;BME280;50828;53.756;21.140;2022-10-16T10:38:41;100054.70;;;16.84;68.39
64460;BME280;50828;53.756;21.140;2022-10-16T10:43:59;100043.46;;;16.88;67.70
64460;BME280;50828;53.756;21.140;2022-10-16T10:49:23;100058.82;;;17.03;67.35
64460;BME280;50828;53.756;21.140;2022-10-16T10:54:37;100053.22;;;17.09;67.41
64460;BME280;50828;53.756;21.140;2022-10-16T11:00:07;100048.17;;;17.15;67.46
64460;BME280;50828;53.756;21.140;2022-10-16T11:05:30;100040.50;;;17.23;67.45
64460;BME280;50828;53.756;21.140;2022-10-16T11:10:46;100037.46;;;17.29;67.67
64460;BME280;50828;53.756;21.140;2022-10-16T11:15:57;100032.13;;;17.34;67.44
64460;BME280;50828;53.756;21.140;2022-10-16T11:21:07;100027.82;;;17.39;67.37
64460;BME280;50828;53.756;21.140;2022-10-16T11:26:19;100020.06;;;17.46;67.08
64460;BME280;50828;53.756;21.140;2022-10-16T11:31:32;100014.56;;;17.54;67.24
64460;BME280;50828;53.756;21.140;2022-10-16T11:36:47;100016.06;;;17.60;67.28
64460;BME280;50828;53.756;21.140;2022-10-16T11:41:59;100016.08;;;17.67;66.64
64460;BME280;50828;53.756;21.140;2022-10-16T11:47:18;100024.15;;;17.76;66.56
64460;BME280;50828;53.756;21.140;2022-10-16T11:52:53;100022.61;;;17.86;66.44
64460;BME280;50828;53.756;21.140;2022-10-16T11:58:05;100016.54;;;17.91;66.10
64460;BME280;50828;53.756;21.140;2022-10-16T12:03:20;100024.23;;;17.98;65.94
64460;BME280;50828;53.756;21.140;2022-10-16T12:08:30;100028.84;;;18.01;65.34
64460;BME280;50828;53.756;21.140;2022-10-16T12:13:42;100026.99;;;18.04;64.86
64460;BME280;50828;53.756;21.140;2022-10-16T12:19:09;100037.16;;;18.07;65.04
64460;BME280;50828;53.756;21.140;2022-10-16T12:24:33;100042.62;;;18.07;65.00
64460;BME280;50828;53.756;21.140;2022-10-16T12:29:44;100039.61;;;18.07;64.70
64460;BME280;50828;53.756;21.140;2022-10-16T12:34:52;100052.77;;;18.08;64.92
64460;BME280;50828;53.756;21.140;2022-10-16T12:40:10;100051.10;;;18.06;65.05
64460;BME280;50828;53.756;21.140;2022-10-16T12:45:31;100061.95;;;18.06;65.11
64460;BME280;50828;53.756;21.140;2022-10-16T12:50:39;100061.94;;;18.06;64.97
64460;BME280;50828;53.756;21.140;2022-10-16T12:55:58;100064.53;;;18.07;65.02
64460;BME280;50828;53.756;21.140;2022-10-16T13:01:16;100061.33;;;18.05;65.12
64460;BME280;50828;53.756;21.140;2022-10-16T13:06:35;100065.27;;;18.02;65.07
64460;BME280;50828;53.756;21.140;2022-10-16T13:12:05;100077.33;;;18.01;65.07
64460;BME280;50828;53.756;21.140;2022-10-16T13:17:20;100079.88;;;18.00;64.91
64460;BME280;50828;53.756;21.140;2022-10-16T13:22:34;100078.59;;;17.98;64.94
64460;BME280;50828;53.756;21.140;2022-10-16T13:27:49;100081.19;;;17.94;64.79
64460;BME280;50828;53.756;21.140;2022-10-16T13:33:01;100084.70;;;17.90;64.92
64460;BME280;50828;53.756;21.140;2022-10-16T13:38:13;100088.90;;;17.85;65.04
64460;BME280;50828;53.756;21.140;2022-10-16T13:43:24;100088.61;;;17.82;64.75
64460;BME280;50828;53.756;21.140;2022-10-16T13:48:33;100084.33;;;17.77;64.99
64460;BME280;50828;53.756;21.140;2022-10-16T13:53:41;100090.50;;;17.72;65.00
64460;BME280;50828;53.756;21.140;2022-10-16T13:58:59;100096.52;;;17.68;65.15
64460;BME280;50828;53.756;21.140;2022-10-16T14:04:09;100101.98;;;17.64;65.26
64460;BME280;50828;53.756;21.140;2022-10-16T14:09:23;100103.82;;;17.60;65.35
64460;BME280;50828;53.756;21.140;2022-10-16T14:14:35;100109.67;;;17.58;65.53
64460;BME280;50828;53.756;21.140;2022-10-16T14:19:50;100110.02;;;17.56;65.62
64460;BME280;50828;53.756;21.140;2022-10-16T14:25:22;100110.89;;;17.53;65.69
64460;BME280;50828;53.756;21.140;2022-10-16T14:30:35;100111.26;;;17.51;65.91
64460;BME280;50828;53.756;21.140;2022-10-16T14:35:43;100122.69;;;17.50;65.95
64460;BME280;50828;53.756;21.140;2022-10-16T14:40:51;100125.60;;;17.49;65.98
64460;BME280;50828;53.756;21.140;2022-10-16T14:45:58;100126.00;;;17.49;66.09
64460;BME280;50828;53.756;21.140;2022-10-16T14:51:07;100126.64;;;17.50;66.23
64460;BME280;50828;53.756;21.140;2022-10-16T14:56:19;100126.30;;;17.50;66.18
64460;BME280;50828;53.756;21.140;2022-10-16T15:01:26;100122.50;;;17.48;66.26
64460;BME280;50828;53.756;21.140;2022-10-16T15:06:33;100128.98;;;17.47;66.21
64460;BME280;50828;53.756;21.140;2022-10-16T15:11:41;100135.83;;;17.46;66.14
64460;BME280;50828;53.756;21.140;2022-10-16T15:16:49;100134.84;;;17.44;66.15
64460;BME280;50828;53.756;21.140;2022-10-16T15:21:56;100136.69;;;17.43;66.22
64460;BME280;50828;53.756;21.140;2022-10-16T15:27:03;100139.31;;;17.41;66.15
64460;BME280;50828;53.756;21.140;2022-10-16T15:32:11;100142.35;;;17.41;66.14
64460;BME280;50828;53.756;21.140;2022-10-16T15:37:19;100142.08;;;17.40;66.20
64460;BME280;50828;53.756;21.140;2022-10-16T15:42:26;100152.67;;;17.38;66.29
64460;BME280;50828;53.756;21.140;2022-10-16T15:47:33;100148.08;;;17.35;66.27
64460;BME280;50828;53.756;21.140;2022-10-16T15:52:41;100152.00;;;17.33;66.33
64460;BME280;50828;53.756;21.140;2022-10-16T15:57:48;100159.04;;;17.31;66.32
64460;BME280;50828;53.756;21.140;2022-10-16T16:02:56;100172.04;;;17.28;66.41
64460;BME280;50828;53.756;21.140;2022-10-16T16:08:04;100174.70;;;17.26;66.58
64460;BME280;50828;53.756;21.140;2022-10-16T16:13:11;100184.13;;;17.23;66.74
64460;BME280;50828;53.756;21.140;2022-10-16T16:18:18;100190.47;;;17.22;66.45
64460;BME280;50828;53.756;21.140;2022-10-16T16:23:25;100197.17;;;17.20;66.79
64460;BME280;50828;53.756;21.140;2022-10-16T16:28:32;100201.89;;;17.18;66.73
64460;BME280;50828;53.756;21.140;2022-10-16T16:33:40;100206.38;;;17.18;66.81
64460;BME280;50828;53.756;21.140;2022-10-16T16:38:48;100209.02;;;17.13;66.73
64460;BME280;50828;53.756;21.140;2022-10-16T16:43:56;100220.84;;;17.14;66.78
64460;BME280;50828;53.756;21.140;2022-10-16T16:49:08;100215.48;;;17.06;66.88
64460;BME280;50828;53.756;21.140;2022-10-16T16:54:15;100223.64;;;17.10;66.96
64460;BME280;50828;53.756;21.140;2022-10-16T16:59:23;100228.55;;;17.08;67.01
64460;BME280;50828;53.756;21.140;2022-10-16T17:04:30;100235.75;;;17.07;67.04
64460;BME280;50828;53.756;21.140;2022-10-16T17:09:37;100242.59;;;17.05;67.20
64460;BME280;50828;53.756;21.140;2022-10-16T17:14:45;100241.02;;;17.02;67.18
64460;BME280;50828;53.756;21.140;2022-10-16T17:19:52;100249.11;;;17.01;67.18
64460;BME280;50828;53.756;21.140;2022-10-16T17:24:59;100256.21;;;16.98;67.26
64460;BME280;50828;53.756;21.140;2022-10-16T17:30:10;100257.84;;;16.95;67.41
64460;BME280;50828;53.756;21.140;2022-10-16T17:35:18;100256.95;;;16.93;67.49
64460;BME280;50828;53.756;21.140;2022-10-16T17:40:26;100264.02;;;16.90;67.58
64460;BME280;50828;53.756;21.140;2022-10-16T17:45:37;100268.88;;;16.90;67.62
64460;BME280;50828;53.756;21.140;2022-10-16T17:50:44;100272.43;;;16.89;67.70
64460;BME280;50828;53.756;21.140;2022-10-16T17:55:52;100273.08;;;16.88;67.73
64460;BME280;50828;53.756;21.140;2022-10-16T18:01:04;100279.44;;;16.86;67.76
64460;BME280;50828;53.756;21.140;2022-10-16T18:06:18;100279.90;;;16.84;67.99
64460;BME280;50828;53.756;21.140;2022-10-16T18:11:27;100286.30;;;16.81;67.89
64460;BME280;50828;53.756;21.140;2022-10-16T18:16:35;100288.80;;;16.78;67.98
64460;BME280;50828;53.756;21.140;2022-10-16T18:21:44;100294.86;;;16.75;67.89
64460;BME280;50828;53.756;21.140;2022-10-16T18:26:53;100301.65;;;16.71;67.96
64460;BME280;50828;53.756;21.140;2022-10-16T18:32:01;100306.86;;;16.67;68.14
64460;BME280;50828;53.756;21.140;2022-10-16T18:37:08;100308.52;;;16.63;68.22
64460;BME280;50828;53.756;21.140;2022-10-16T18:42:17;100317.65;;;16.60;68.46
64460;BME280;50828;53.756;21.140;2022-10-16T18:47:24;100325.20;;;16.56;68.55
64460;BME280;50828;53.756;21.140;2022-10-16T18:52:31;100330.00;;;16.53;68.63
64460;BME280;50828;53.756;21.140;2022-10-16T18:57:38;100334.90;;;16.48;68.78
64460;BME280;50828;53.756;21.140;2022-10-16T19:02:45;100339.30;;;16.46;68.97
64460;BME280;50828;53.756;21.140;2022-10-16T19:07:53;100342.60;;;16.41;68.84
64460;BME280;50828;53.756;21.140;2022-10-16T19:13:00;100351.08;;;16.36;68.85
64460;BME280;50828;53.756;21.140;2022-10-16T19:18:11;100353.18;;;16.31;68.98
64460;BME280;50828;53.756;21.140;2022-10-16T19:23:18;100359.14;;;16.26;69.10
64460;BME280;50828;53.756;21.140;2022-10-16T19:28:25;100364.40;;;16.22;69.32
64460;BME280;50828;53.756;21.140;2022-10-16T19:33:33;100368.34;;;16.18;69.32
64460;BME280;50828;53.756;21.140;2022-10-16T19:38:41;100369.46;;;16.14;69.43
64460;BME280;50828;53.756;21.140;2022-10-16T19:43:49;100377.85;;;16.11;69.52
64460;BME280;50828;53.756;21.140;2022-10-16T19:48:58;100386.09;;;16.06;69.73
64460;BME280;50828;53.756;21.140;2022-10-16T19:54:06;100389.58;;;16.01;69.64
64460;BME280;50828;53.756;21.140;2022-10-16T19:59:14;100393.85;;;15.98;69.69
64460;BME280;50828;53.756;21.140;2022-10-16T20:04:24;100395.10;;;15.95;69.84
64460;BME280;50828;53.756;21.140;2022-10-16T20:09:33;100394.81;;;15.91;69.73
64460;BME280;50828;53.756;21.140;2022-10-16T20:14:40;100405.22;;;15.86;69.88
64460;BME280;50828;53.756;21.140;2022-10-16T20:19:47;100402.41;;;15.82;69.97
64460;BME280;50828;53.756;21.140;2022-10-16T20:24:54;100412.89;;;15.79;70.13
64460;BME280;50828;53.756;21.140;2022-10-16T20:30:02;100423.57;;;15.75;70.14
64460;BME280;50828;53.756;21.140;2022-10-16T20:35:10;100434.21;;;15.72;70.11
64460;BME280;50828;53.756;21.140;2022-10-16T20:40:18;100437.30;;;15.68;70.26
64460;BME280;50828;53.756;21.140;2022-10-16T20:45:25;100439.09;;;15.64;70.56
64460;BME280;50828;53.756;21.140;2022-10-16T20:50:32;100446.77;;;15.60;70.60
64460;BME280;50828;53.756;21.140;2022-10-16T20:55:39;100454.69;;;15.58;70.85
64460;BME280;50828;53.756;21.140;2022-10-16T21:00:47;100456.61;;;15.55;70.89
64460;BME280;50828;53.756;21.140;2022-10-16T21:05:54;100457.67;;;15.52;71.15
64460;BME280;50828;53.756;21.140;2022-10-16T21:11:10;100455.45;;;15.51;71.14
64460;BME280;50828;53.756;21.140;2022-10-16T21:16:17;100459.52;;;15.48;71.10
64460;BME280;50828;53.756;21.140;2022-10-16T21:21:25;100461.61;;;15.45;71.18
64460;BME280;50828;53.756;21.140;2022-10-16T21:26:33;100466.32;;;15.43;71.24
64460;BME280;50828;53.756;21.140;2022-10-16T21:31:41;100459.94;;;15.40;71.16
64460;BME280;50828;53.756;21.140;2022-10-16T21:36:48;100465.85;;;15.36;71.04
64460;BME280;50828;53.756;21.140;2022-10-16T21:41:55;100473.55;;;15.32;71.16
64460;BME280;50828;53.756;21.140;2022-10-16T21:47:02;100481.29;;;15.25;71.13
64460;BME280;50828;53.756;21.140;2022-10-16T21:52:09;100485.08;;;15.18;71.42
64460;BME280;50828;53.756;21.140;2022-10-16T21:57:16;100497.45;;;15.15;71.34
64460;BME280;50828;53.756;21.140;2022-10-16T22:02:23;100510.47;;;15.11;71.42
64460;BME280;50828;53.756;21.140;2022-10-16T22:07:31;100525.11;;;15.05;71.21
64460;BME280;50828;53.756;21.140;2022-10-16T22:12:38;100532.55;;;14.99;71.38
64460;BME280;50828;53.756;21.140;2022-10-16T22:17:46;100533.96;;;14.92;71.48
64460;BME280;50828;53.756;21.140;2022-10-16T22:22:53;100539.20;;;14.87;71.59
64460;BME280;50828;53.756;21.140;2022-10-16T22:28:00;100546.91;;;14.81;71.32
64460;BME280;50828;53.756;21.140;2022-10-16T22:33:07;100550.05;;;14.76;71.67
64460;BME280;50828;53.756;21.140;2022-10-16T22:38:14;100557.94;;;14.70;71.44
64460;BME280;50828;53.756;21.140;2022-10-16T22:43:21;100560.13;;;14.65;71.76
64460;BME280;50828;53.756;21.140;2022-10-16T22:48:29;100563.10;;;14.59;71.94
64460;BME280;50828;53.756;21.140;2022-10-16T22:53:36;100568.85;;;14.53;71.77
64460;BME280;50828;53.756;21.140;2022-10-16T22:58:43;100581.38;;;14.47;71.98
64460;BME280;50828;53.756;21.140;2022-10-16T23:03:51;100584.69;;;14.41;71.65
64460;BME280;50828;53.756;21.140;2022-10-16T23:08:59;100585.59;;;14.34;71.65
64460;BME280;50828;53.756;21.140;2022-10-16T23:14:07;100594.35;;;14.28;72.14
64460;BME280;50828;53.756;21.140;2022-10-16T23:19:14;100596.96;;;14.22;72.14
64460;BME280;50828;53.756;21.140;2022-10-16T23:24:21;100597.64;;;14.15;71.90
64460;BME280;50828;53.756;21.140;2022-10-16T23:29:28;100597.52;;;14.09;72.15
64460;BME280;50828;53.756;21.140;2022-10-16T23:34:36;100599.77;;;14.04;72.09
64460;BME280;50828;53.756;21.140;2022-10-16T23:39:43;100609.01;;;13.99;72.35
64460;BME280;50828;53.756;21.140;2022-10-16T23:44:50;100618.83;;;13.93;72.27
64460;BME280;50828;53.756;21.140;2022-10-16T23:49:57;100637.14;;;13.88;72.44
64460;BME280;50828;53.756;21.140;2022-10-16T23:55:06;100646.09;;;13.82;72.40
